Time;durP1;ratioP1;P1;durP2;ratioP2;P2;SDS_P1;SDS_P2;PMS_P1;PMS_P2;Temp;Humidity;BMP_temperature;BMP_pressure;BME280_temperature;BME280_humidity;BME280_pressure;Samples;Min_cycle;Max_cycle;Signal;HPM_P1;HPM_P2
2022/01/14 00:02:08;;;;;;;2.83;2.40;;;;;;;;;;5038407;28;20106;-71
2022/01/14 00:04:34;;;;;;;3.38;2.65;;;;;;;;;;5065560;28;20033;-66
2022/01/14 00:07:00;;;;;;;3.17;2.88;;;;;;;;;;5039857;28;20083;-69
2022/01/14 00:09:26;;;;;;;2.70;2.47;;;;;;;;;;5076161;28;20400;-67
2022/01/14 00:11:56;;;;;;;2.80;2.58;;;;;;;;;;5075758;28;20020;-67
2022/01/14 00:16:49;;;;;;;8.20;2.10;;;;;;;;;;5075931;28;20459;-62
2022/01/14 00:19:16;;;;;;;2.88;2.60;;;;;;;;;;5075996;28;20452;-65
2022/01/14 00:21:44;;;;;;;2.80;2.60;;;;;;;;;;5068914;28;20460;-64
2022/01/14 00:24:25;;;;;;;3.65;2.60;;;;;;;;;;5055592;28;20020;-68
2022/01/14 00:32:34;;;;;;;3.28;2.10;;;;;;;;;;5055534;28;20044;-68
2022/01/14 00:35:00;;;;;;;2.35;2.15;;;;;;;;;;5055337;28;20369;-70
2022/01/14 00:37:26;;;;;;;2.55;2.35;;;;;;;;;;5037406;28;20490;-66
2022/01/14 00:39:52;;;;;;;2.40;2.20;;;;;;;;;;5055395;28;20029;-71
2022/01/14 00:42:18;;;;;;;2.40;2.20;;;;;;;;;;5055096;28;20087;-71
2022/01/14 00:44:44;;;;;;;2.10;1.95;;;;;;;;;;5055459;28;20049;-69
2022/01/14 00:47:10;;;;;;;2.60;2.40;;;;;;;;;;5055527;28;20379;-68
2022/01/14 00:49:36;;;;;;;3.13;2.58;;;;;;;;;;5068713;28;20115;-70
2022/01/14 00:52:02;;;;;;;2.75;2.13;;;;;;;;;;5095452;28;20098;-69
2022/01/14 00:54:28;;;;;;;2.63;2.30;;;;;;;;;;5095542;28;20494;-69
2022/01/14 00:59:35;;;;;;;2.30;1.92;;;;;;;;;;5095586;28;20093;-68
2022/01/14 01:02:02;;;;;;;2.88;1.98;;;;;;;;;;5077199;28;20455;-70
2022/01/14 01:04:34;;;;;;;2.63;2.15;;;;;;;;;;5078735;28;20032;-69
2022/01/14 01:07:00;;;;;;;;;;;;;;;;;;5075653;28;20426;-64
2022/01/14 01:09:26;;;;;;;3.05;2.20;;;;;;;;;;5075005;28;19905;-69
2022/01/14 01:12:06;;;;;;;27.27;2.60;;;;;;;;;;5044943;28;20392;-69
2022/01/14 01:14:41;;;;;;;2.33;2.08;;;;;;;;;;5055036;28;20035;-70
2022/01/14 01:17:07;;;;;;;5.05;2.03;;;;;;;;;;5055012;28;20059;-71
2022/01/14 01:19:33;;;;;;;6.22;2.38;;;;;;;;;;5037016;28;20502;-70
2022/01/14 01:21:59;;;;;;;3.53;2.50;;;;;;;;;;5054889;28;20506;-69
2022/01/14 01:24:25;;;;;;;15.75;2.85;;;;;;;;;;5054841;28;20037;-68
2022/01/14 01:26:52;;;;;;;14.68;2.75;;;;;;;;;;5054741;28;20021;-69
2022/01/14 01:31:45;;;;;;;34.83;3.45;;;;;;;;;;5054718;28;20526;-77
2022/01/14 01:34:16;;;;;;;12.18;3.08;;;;;;;;;;5054624;28;20487;-68
2022/01/14 01:36:43;;;;;;;21.00;3.08;;;;;;;;;;5054493;28;20032;-67
2022/01/14 01:39:11;;;;;;;23.42;3.00;;;;;;;;;;5055789;28;20052;-69
2022/01/14 01:41:40;;;;;;;10.80;3.10;;;;;;;;;;5054202;28;20033;-68
2022/01/14 01:44:07;;;;;;;13.48;3.08;;;;;;;;;;5054336;28;20033;-64
2022/01/14 01:46:34;;;;;;;8.43;2.53;;;;;;;;;;5054305;28;20036;-70
2022/01/14 01:49:00;;;;;;;5.15;2.42;;;;;;;;;;5056936;28;20341;-66
2022/01/14 01:51:26;;;;;;;11.02;2.42;;;;;;;;;;5094458;28;20466;-66
2022/01/14 01:53:52;;;;;;;10.85;2.33;;;;;;;;;;5092934;28;20071;-70
2022/01/14 01:56:18;;;;;;;4.32;2.30;;;;;;;;;;5076051;28;20737;-68
2022/01/14 01:58:45;;;;;;;4.68;2.20;;;;;;;;;;5093953;28;20035;-68
2022/01/14 02:01:11;;;;;;;9.52;2.53;;;;;;;;;;5094262;28;20055;-68
2022/01/14 02:03:38;;;;;;;11.23;2.80;;;;;;;;;;5083466;28;20024;-70
2022/01/14 02:06:05;;;;;;;5.65;2.47;;;;;;;;;;5073222;28;20483;-67
2022/01/14 02:08:31;;;;;;;6.32;2.50;;;;;;;;;;5073236;28;20052;-67
2022/01/14 02:10:58;;;;;;;4.63;2.58;;;;;;;;;;5053919;28;20032;-69
2022/01/14 02:13:24;;;;;;;2.60;1.80;;;;;;;;;;5055163;28;20032;-68
2022/01/14 02:16:17;;;;;;;4.13;2.40;;;;;;;;;;5073136;28;20028;-69
2022/01/14 02:18:41;;;;;;;4.32;2.00;;;;;;;;;;5072687;28;20097;-69
2022/01/14 02:24:08;;;;;;;3.28;2.10;;;;;;;;;;5053800;28;20044;-70
2022/01/14 02:26:34;;;;;;;3.17;2.35;;;;;;;;;;5053902;28;20440;-70
2022/01/14 02:29:00;;;;;;;4.32;2.40;;;;;;;;;;5067726;28;20031;-70
2022/01/14 02:31:26;;;;;;;7.88;2.10;;;;;;;;;;5073746;28;20024;-70
2022/01/14 02:33:52;;;;;;;4.75;2.30;;;;;;;;;;5073358;28;20025;-69
2022/01/14 02:36:18;;;;;;;6.32;2.38;;;;;;;;;;5073565;28;20032;-70
2022/01/14 02:38:45;;;;;;;6.50;2.22;;;;;;;;;;5073827;28;20459;-68
2022/01/14 02:41:12;;;;;;;4.93;1.92;;;;;;;;;;5055523;28;20391;-70
2022/01/14 02:43:38;;;;;;;2.35;2.13;;;;;;;;;;5073503;28;20031;-69
2022/01/14 02:46:05;;;;;;;2.33;2.10;;;;;;;;;;5073189;28;20333;-70
2022/01/14 02:48:31;;;;;;;3.03;1.80;;;;;;;;;;5073125;28;20379;-71
2022/01/14 02:51:09;;;;;;;2.33;2.13;;;;;;;;;;5073255;28;20035;-69
2022/01/14 02:56:05;;;;;;;2.65;2.40;;;;;;;;;;5073348;28;20059;-70
2022/01/14 02:58:33;;;;;;;2.40;1.92;;;;;;;;;;5073181;28;20029;-70
2022/01/14 03:01:00;;;;;;;4.25;2.05;;;;;;;;;;5055139;28;20396;-67
2022/01/14 03:03:27;;;;;;;2.05;1.85;;;;;;;;;;5065338;28;20039;-69
2022/01/14 03:05:53;;;;;;;2.50;1.95;;;;;;;;;;5053057;28;20043;-70
2022/01/14 03:08:20;;;;;;;2.45;2.10;;;;;;;;;;5055380;28;20021;-70
2022/01/14 03:10:48;;;;;;;2.45;1.98;;;;;;;;;;5072831;28;20077;-70
2022/01/14 03:13:15;;;;;;;3.35;1.77;;;;;;;;;;5054893;28;20134;-70
2022/01/14 03:15:41;;;;;;;1.90;1.80;;;;;;;;;;5073026;28;20020;-70
2022/01/14 03:18:07;;;;;;;3.30;2.00;;;;;;;;;;5072886;28;20023;-69
2022/01/14 03:20:48;;;;;;;1.67;1.58;;;;;;;;;;5053537;28;20065;-70
2022/01/14 03:23:15;;;;;;;2.03;1.70;;;;;;;;;;5053012;28;20033;-67
2022/01/14 03:25:51;;;;;;;2.15;1.95;;;;;;;;;;5052832;28;20051;-66
2022/01/14 03:28:18;;;;;;;2.92;2.10;;;;;;;;;;5061762;28;20012;-71
2022/01/14 03:30:44;;;;;;;2.72;1.83;;;;;;;;;;5072361;28;20437;-70
2022/01/14 03:33:10;;;;;;;2.03;1.80;;;;;;;;;;5072942;28;20096;-70
2022/01/14 03:35:36;;;;;;;2.28;1.88;;;;;;;;;;5072825;28;20420;-68
2022/01/14 03:38:02;;;;;;;2.25;2.05;;;;;;;;;;5072847;28;20491;-67
2022/01/14 03:40:28;;;;;;;8.98;2.00;;;;;;;;;;5088190;28;20048;-71
2022/01/14 03:42:54;;;;;;;2.83;1.70;;;;;;;;;;5092735;28;20028;-69
2022/01/14 03:45:20;;;;;;;7.25;1.80;;;;;;;;;;5092699;28;20036;-64
2022/01/14 03:47:46;;;;;;;1.67;1.52;;;;;;;;;;5066763;28;20018;-69
2022/01/14 03:50:12;;;;;;;1.98;1.70;;;;;;;;;;5075697;28;20028;-67
2022/01/14 03:52:38;;;;;;;2.65;1.75;;;;;;;;;;5092271;28;20024;-71
2022/01/14 03:55:04;;;;;;;1.98;1.88;;;;;;;;;;5092627;28;20074;-65
2022/01/14 03:57:30;;;;;;;2.85;1.63;;;;;;;;;;5092718;28;20062;-71
2022/01/14 03:59:56;;;;;;;2.00;1.70;;;;;;;;;;5092793;28;20021;-65
2022/01/14 04:02:22;;;;;;;3.25;1.77;;;;;;;;;;5092433;28;20037;-69
2022/01/14 04:04:48;;;;;;;1.60;1.50;;;;;;;;;;5072813;28;20033;-64
2022/01/14 04:07:14;;;;;;;2.38;1.70;;;;;;;;;;5054417;28;20051;-70
2022/01/14 04:09:41;;;;;;;2.40;1.73;;;;;;;;;;5072248;28;20117;-67
2022/01/14 04:12:09;;;;;;;3.17;1.60;;;;;;;;;;5072150;28;20033;-63
2022/01/14 04:17:10;;;;;;;1.98;1.80;;;;;;;;;;5072731;28;20047;-68
2022/01/14 04:19:36;;;;;;;2.28;1.70;;;;;;;;;;5053662;28;20031;-70
2022/01/14 04:22:02;;;;;;;1.70;1.60;;;;;;;;;;5055640;28;20021;-66
2022/01/14 04:24:28;;;;;;;1.95;1.70;;;;;;;;;;5055932;28;20090;-69
2022/01/14 04:26:54;;;;;;;2.13;1.80;;;;;;;;;;5055477;28;20017;-68
2022/01/14 04:29:20;;;;;;;1.77;1.67;;;;;;;;;;5073454;28;20086;-70
2022/01/14 04:31:46;;;;;;;1.85;1.70;;;;;;;;;;5075564;28;20021;-69
2022/01/14 04:34:15;;;;;;;1.77;1.65;;;;;;;;;;5070456;28;20021;-70
2022/01/14 04:36:41;;;;;;;2.03;1.67;;;;;;;;;;5055514;28;20025;-67
2022/01/14 04:39:07;;;;;;;1.90;1.80;;;;;;;;;;5064047;28;20020;-70
2022/01/14 04:41:33;;;;;;;3.47;1.83;;;;;;;;;;5095681;28;20050;-71
2022/01/14 04:43:59;;;;;;;1.67;1.58;;;;;;;;;;5095361;28;20443;-68
2022/01/14 04:46:48;;;;;;;1.60;1.50;;;;;;;;;;5095458;28;20024;-68
2022/01/14 04:49:14;;;;;;;1.77;1.67;;;;;;;;;;5094214;28;20028;-69
2022/01/14 04:51:40;;;;;;;2.10;1.90;;;;;;;;;;5055224;28;20116;-66
2022/01/14 04:54:06;;;;;;;1.70;1.60;;;;;;;;;;5054911;28;20041;-69
2022/01/14 04:56:33;;;;;;;1.60;1.50;;;;;;;;;;5037356;28;20078;-66
2022/01/14 04:58:59;;;;;;;1.92;1.70;;;;;;;;;;5054953;28;20071;-68
2022/01/14 05:01:25;;;;;;;3.25;1.60;;;;;;;;;;5037272;28;20075;-70
2022/01/14 05:03:51;;;;;;;1.77;1.67;;;;;;;;;;5062128;28;20029;-64
2022/01/14 05:06:17;;;;;;;1.70;1.60;;;;;;;;;;5055318;28;20444;-67
2022/01/14 05:08:43;;;;;;;1.83;1.50;;;;;;;;;;5054934;28;20051;-67
2022/01/14 05:13:44;;;;;;;1.70;1.60;;;;;;;;;;5055379;28;20029;-70
2022/01/14 05:16:10;;;;;;;1.65;1.55;;;;;;;;;;5055203;28;20029;-71
2022/01/14 05:18:38;;;;;;;1.70;1.60;;;;;;;;;;5054696;28;20025;-71
2022/01/14 05:21:04;;;;;;;1.70;1.60;;;;;;;;;;5054450;28;20036;-69
2022/01/14 05:23:31;;;;;;;1.60;1.50;;;;;;;;;;5054753;28;20021;-70
2022/01/14 05:25:57;;;;;;;4.53;1.60;;;;;;;;;;5054465;28;20029;-67
2022/01/14 05:28:23;;;;;;;1.55;1.45;;;;;;;;;;5046371;28;20025;-72
2022/01/14 05:30:49;;;;;;;2.25;1.70;;;;;;;;;;5074329;28;20483;-68
2022/01/14 05:33:16;;;;;;;3.63;1.50;;;;;;;;;;5056305;28;20021;-68
2022/01/14 05:35:42;;;;;;;2.55;1.40;;;;;;;;;;5074193;28;20025;-71
2022/01/14 05:38:08;;;;;;;1.55;1.35;;;;;;;;;;5056223;28;20058;-71
2022/01/14 05:40:34;;;;;;;3.22;1.17;;;;;;;;;;5074017;28;20020;-70
2022/01/14 05:43:01;;;;;;;1.80;1.50;;;;;;;;;;5074013;28;20028;-66
2022/01/14 05:45:27;;;;;;;1.35;1.25;;;;;;;;;;5074158;28;20040;-71
2022/01/14 05:47:54;;;;;;;2.20;1.25;;;;;;;;;;5074125;28;20028;-71
2022/01/14 05:50:21;;;;;;;2.45;1.38;;;;;;;;;;5073169;28;20028;-68
2022/01/14 05:52:47;;;;;;;2.03;1.60;;;;;;;;;;5073741;28;20025;-68
2022/01/14 05:55:14;;;;;;;2.67;1.45;;;;;;;;;;5073961;28;20116;-67
2022/01/14 05:57:41;;;;;;;1.40;1.30;;;;;;;;;;5073638;28;20107;-71
2022/01/14 06:00:08;;;;;;;4.10;1.30;;;;;;;;;;5073909;28;20051;-65
2022/01/14 06:02:34;;;;;;;4.25;1.50;;;;;;;;;;5072956;28;20024;-70
2022/01/14 06:05:00;;;;;;;1.77;1.67;;;;;;;;;;5071127;28;20372;-64
2022/01/14 06:07:26;;;;;;;2.53;1.58;;;;;;;;;;5073837;28;20039;-69
2022/01/14 06:09:52;;;;;;;2.30;1.30;;;;;;;;;;5073868;28;20032;-69
2022/01/14 06:12:18;;;;;;;1.67;1.30;;;;;;;;;;5073630;28;20028;-64
2022/01/14 06:14:44;;;;;;;2.30;1.70;;;;;;;;;;5073422;28;20020;-69
2022/01/14 06:17:10;;;;;;;1.70;1.45;;;;;;;;;;5073824;28;20020;-67
2022/01/14 06:19:36;;;;;;;1.70;1.50;;;;;;;;;;5073611;28;20375;-70
2022/01/14 06:22:03;;;;;;;1.60;1.50;;;;;;;;;;5072136;28;20029;-69
2022/01/14 06:24:29;;;;;;;1.42;1.33;;;;;;;;;;5073489;28;20028;-68
2022/01/14 06:26:55;;;;;;;1.48;1.35;;;;;;;;;;5055415;28;20028;-67
2022/01/14 06:29:22;;;;;;;2.40;1.38;;;;;;;;;;5055298;28;20115;-69
2022/01/14 06:31:48;;;;;;;1.60;1.40;;;;;;;;;;5073322;28;20045;-71
2022/01/14 06:34:14;;;;;;;2.10;1.30;;;;;;;;;;5072976;28;20432;-68
2022/01/14 06:36:41;;;;;;;2.00;1.38;;;;;;;;;;5072177;28;20434;-71
2022/01/14 06:39:07;;;;;;;4.40;1.45;;;;;;;;;;5077632;28;20012;-67
2022/01/14 06:41:33;;;;;;;1.35;1.25;;;;;;;;;;5093017;28;20043;-70
2022/01/14 06:43:59;;;;;;;5.70;1.50;;;;;;;;;;5093479;28;20024;-68
2022/01/14 06:46:25;;;;;;;1.30;1.20;;;;;;;;;;5093410;28;20395;-69
2022/01/14 06:48:51;;;;;;;1.45;1.35;;;;;;;;;;5093076;28;20052;-70
2022/01/14 06:51:17;;;;;;;1.13;1.08;;;;;;;;;;5075030;28;20160;-69
2022/01/14 06:53:43;;;;;;;2.80;1.35;;;;;;;;;;5092831;28;21593;-70
2022/01/14 06:56:11;;;;;;;13.35;1.23;;;;;;;;;;5075282;28;20040;-74
2022/01/14 06:58:37;;;;;;;36.90;2.38;;;;;;;;;;5093614;28;20020;-67
2022/01/14 07:01:04;;;;;;;26.17;2.53;;;;;;;;;;5093584;28;20027;-69
2022/01/14 07:03:30;;;;;;;30.75;2.85;;;;;;;;;;5086574;28;20032;-71
2022/01/14 07:05:56;;;;;;;52.03;2.88;;;;;;;;;;5053727;28;20468;-70
2022/01/14 07:08:22;;;;;;;27.13;2.80;;;;;;;;;;5068758;28;20047;-70
2022/01/14 07:10:48;;;;;;;57.92;3.70;;;;;;;;;;5067848;28;20041;-71
2022/01/14 07:13:14;;;;;;;73.22;3.63;;;;;;;;;;5052751;28;20492;-66
2022/01/14 07:15:40;;;;;;;12.27;2.42;;;;;;;;;;5051368;28;20029;-68
2022/01/14 07:18:06;;;;;;;30.90;2.88;;;;;;;;;;5034863;28;20087;-68
2022/01/14 07:20:32;;;;;;;32.90;2.72;;;;;;;;;;5052425;28;20029;-67
2022/01/14 07:22:58;;;;;;;24.52;2.20;;;;;;;;;;5052639;28;20040;-70
2022/01/14 07:25:24;;;;;;;21.58;2.35;;;;;;;;;;5052210;28;20445;-67
2022/01/14 07:27:51;;;;;;;21.60;2.95;;;;;;;;;;5058004;28;20017;-69
2022/01/14 07:30:20;;;;;;;21.52;2.05;;;;;;;;;;5056279;28;20036;-68
2022/01/14 07:32:46;;;;;;;24.63;2.25;;;;;;;;;;5038203;28;20422;-70
2022/01/14 07:35:12;;;;;;;33.05;2.45;;;;;;;;;;5054769;28;20025;-72
2022/01/14 07:37:38;;;;;;;17.90;2.50;;;;;;;;;;5073095;28;20028;-78
2022/01/14 07:40:05;;;;;;;16.77;2.85;;;;;;;;;;5061533;28;20059;-68
2022/01/14 07:42:32;;;;;;;12.45;2.40;;;;;;;;;;5034648;28;20489;-74
2022/01/14 07:44:59;;;;;;;10.63;2.35;;;;;;;;;;5052588;28;20033;-68
2022/01/14 07:47:26;;;;;;;9.77;2.40;;;;;;;;;;5052959;28;20151;-70
2022/01/14 07:49:53;;;;;;;9.15;2.40;;;;;;;;;;5034922;28;20036;-71
2022/01/14 07:52:19;;;;;;;15.80;2.65;;;;;;;;;;5053076;28;20033;-72
2022/01/14 07:54:45;;;;;;;13.35;2.30;;;;;;;;;;5056318;28;20119;-74
2022/01/14 07:57:11;;;;;;;9.45;2.08;;;;;;;;;;5038372;28;20025;-70
2022/01/14 07:59:37;;;;;;;18.85;2.63;;;;;;;;;;5056049;28;20037;-69
2022/01/14 08:02:04;;;;;;;14.70;2.67;;;;;;;;;;5055619;28;20447;-66
2022/01/14 08:04:33;;;;;;;11.88;2.30;;;;;;;;;;5062659;28;20059;-69
2022/01/14 08:07:08;;;;;;;5.68;2.30;;;;;;;;;;5075946;28;20032;-70
2022/01/14 08:09:36;;;;;;;7.32;2.00;;;;;;;;;;5074943;28;20131;-70
2022/01/14 08:12:02;;;;;;;12.07;2.80;;;;;;;;;;5076096;28;20027;-69
2022/01/14 08:14:28;;;;;;;18.08;2.60;;;;;;;;;;5075561;28;20025;-71
2022/01/14 08:16:54;;;;;;;3.58;2.35;;;;;;;;;;5056188;28;20110;-71
2022/01/14 08:19:20;;;;;;;6.70;2.40;;;;;;;;;;5087760;28;20057;-71
2022/01/14 08:21:46;;;;;;;5.22;1.90;;;;;;;;;;5096680;28;20028;-72
2022/01/14 08:24:12;;;;;;;10.32;2.00;;;;;;;;;;5095787;28;20036;-74
2022/01/14 08:26:38;;;;;;;6.15;1.95;;;;;;;;;;5076471;28;20027;-70
2022/01/14 08:29:04;;;;;;;5.25;2.40;;;;;;;;;;5074977;28;20411;-68
2022/01/14 08:31:30;;;;;;;10.05;2.20;;;;;;;;;;5075463;28;20028;-71
2022/01/14 08:33:56;;;;;;;7.65;2.03;;;;;;;;;;5075097;28;20024;-66
2022/01/14 08:36:23;;;;;;;3.97;2.20;;;;;;;;;;5075328;28;20021;-72
2022/01/14 08:38:51;;;;;;;3.67;1.55;;;;;;;;;;5048714;28;20416;-74
2022/01/14 08:41:18;;;;;;;3.65;2.00;;;;;;;;;;5054843;28;20029;-70
2022/01/14 08:43:46;;;;;;;7.97;2.00;;;;;;;;;;5036982;28;20033;-73
2022/01/14 08:46:13;;;;;;;6.25;2.53;;;;;;;;;;5055358;28;20626;-71
2022/01/14 08:48:39;;;;;;;10.43;2.33;;;;;;;;;;5037059;28;20399;-70
2022/01/14 08:51:05;;;;;;;6.60;2.08;;;;;;;;;;5037145;28;20472;-73
2022/01/14 08:53:31;;;;;;;6.20;2.33;;;;;;;;;;5054341;28;20072;-71
2022/01/14 08:55:57;;;;;;;5.85;2.40;;;;;;;;;;5038469;28;20376;-69
2022/01/14 08:58:23;;;;;;;4.20;2.13;;;;;;;;;;5054659;28;20507;-74
2022/01/14 09:00:49;;;;;;;3.90;2.10;;;;;;;;;;5054412;28;20057;-72
2022/01/14 09:03:15;;;;;;;4.32;1.92;;;;;;;;;;5036550;28;20056;-69
2022/01/14 09:05:41;;;;;;;3.38;1.92;;;;;;;;;;5070455;28;20058;-73
2022/01/14 09:08:07;;;;;;;5.95;2.35;;;;;;;;;;5043399;28;20024;-67
2022/01/14 09:10:33;;;;;;;2.72;1.80;;;;;;;;;;5054305;28;20128;-75
2022/01/14 09:13:00;;;;;;;5.07;2.40;;;;;;;;;;5054507;28;20102;-66
2022/01/14 09:15:26;;;;;;;3.55;2.00;;;;;;;;;;5061537;28;20024;-69
2022/01/14 09:17:52;;;;;;;5.88;2.38;;;;;;;;;;5056355;28;20036;-75
2022/01/14 09:20:18;;;;;;;7.95;2.13;;;;;;;;;;5074323;28;20031;-74
2022/01/14 09:22:48;;;;;;;3.58;1.95;;;;;;;;;;5074283;28;20380;-74
2022/01/14 09:25:15;;;;;;;5.57;1.95;;;;;;;;;;5052891;28;20044;-75
2022/01/14 09:27:41;;;;;;;5.57;1.85;;;;;;;;;;5040443;28;20017;-71
2022/01/14 09:30:08;;;;;;;8.02;2.25;;;;;;;;;;5074626;28;20029;-71
2022/01/14 09:32:34;;;;;;;6.88;2.47;;;;;;;;;;5058524;28;20041;-71
2022/01/14 09:35:04;;;;;;;5.00;2.25;;;;;;;;;;5074137;28;20020;-67
2022/01/14 09:37:30;;;;;;;6.90;2.50;;;;;;;;;;5074376;28;20030;-72
2022/01/14 09:39:57;;;;;;;8.77;2.80;;;;;;;;;;5073914;28;20024;-72
2022/01/14 09:42:23;;;;;;;4.75;2.22;;;;;;;;;;5073431;28;20074;-72
2022/01/14 09:44:49;;;;;;;5.88;2.20;;;;;;;;;;5073528;28;20036;-72
2022/01/14 09:47:18;;;;;;;7.80;2.67;;;;;;;;;;5073925;28;20077;-72
2022/01/14 09:49:45;;;;;;;4.30;2.40;;;;;;;;;;5073576;28;20051;-73
2022/01/14 09:52:11;;;;;;;4.45;2.50;;;;;;;;;;5055981;28;20048;-72
2022/01/14 09:54:38;;;;;;;5.30;2.35;;;;;;;;;;5073821;28;20044;-71
2022/01/14 09:57:04;;;;;;;5.78;2.50;;;;;;;;;;5055796;28;20028;-72
2022/01/14 09:59:30;;;;;;;5.63;2.20;;;;;;;;;;5055517;28;20082;-72
2022/01/14 10:01:57;;;;;;;5.07;2.58;;;;;;;;;;5073756;28;20028;-72
2022/01/14 10:04:23;;;;;;;5.38;2.50;;;;;;;;;;5073543;28;20025;-73
2022/01/14 10:06:59;;;;;;;3.90;2.20;;;;;;;;;;5073475;28;20043;-68
2022/01/14 10:09:33;;;;;;;5.10;2.60;;;;;;;;;;5073283;28;20025;-71
2022/01/14 10:12:02;;;;;;;5.85;2.33;;;;;;;;;;5073707;28;20103;-72
2022/01/14 10:14:28;;;;;;;4.60;2.40;;;;;;;;;;5073194;28;20029;-73
2022/01/14 10:16:55;;;;;;;4.38;2.60;;;;;;;;;;5072907;28;20024;-72
2022/01/14 10:19:26;;;;;;;5.63;2.38;;;;;;;;;;5073455;28;20028;-73
2022/01/14 10:21:52;;;;;;;4.40;2.30;;;;;;;;;;5055449;28;20043;-72
2022/01/14 10:24:18;;;;;;;4.60;2.22;;;;;;;;;;5073409;28;20107;-72
2022/01/14 10:26:48;;;;;;;4.22;2.38;;;;;;;;;;5063145;28;20033;-71
2022/01/14 10:29:14;;;;;;;7.68;2.30;;;;;;;;;;5053193;28;20052;-73
2022/01/14 10:31:42;;;;;;;3.85;2.50;;;;;;;;;;5053281;28;20028;-72
2022/01/14 10:34:14;;;;;;;6.25;2.63;;;;;;;;;;5055616;28;20468;-72
2022/01/14 10:36:44;;;;;;;9.50;2.55;;;;;;;;;;5053998;28;20044;-74
2022/01/14 10:39:24;;;;;;;4.18;2.40;;;;;;;;;;5085387;28;20031;-71
2022/01/14 10:41:50;;;;;;;4.85;2.55;;;;;;;;;;5083693;28;20024;-68
2022/01/14 10:44:30;;;;;;;5.93;2.25;;;;;;;;;;5072799;28;20491;-74
2022/01/14 10:47:16;;;;;;;2.17;1.77;;;;;;;;;;5055088;28;20166;-73
2022/01/14 10:49:43;;;;;;;6.93;2.22;;;;;;;;;;5062078;28;20066;-71
2022/01/14 10:52:15;;;;;;;4.05;2.25;;;;;;;;;;5092985;28;20082;-72
2022/01/14 10:54:42;;;;;;;3.25;2.30;;;;;;;;;;5075262;28;20525;-70
2022/01/14 10:57:15;;;;;;;4.40;2.30;;;;;;;;;;5072844;28;20098;-72
2022/01/14 10:59:41;;;;;;;;;;;;;;;;;;5082693;28;20047;-70
2022/01/14 11:02:26;;;;;;;6.25;2.58;;;;;;;;;;5093000;28;20267;-73
2022/01/14 11:05:01;;;;;;;6.65;2.58;;;;;;;;;;5073930;28;20523;-72
2022/01/14 11:07:27;;;;;;;6.15;2.20;;;;;;;;;;5062988;28;20024;-71
2022/01/14 11:09:53;;;;;;;4.43;2.47;;;;;;;;;;5074798;28;20459;-71
2022/01/14 11:12:19;;;;;;;3.25;2.15;;;;;;;;;;5075032;28;20028;-71
2022/01/14 11:14:45;;;;;;;3.95;2.28;;;;;;;;;;5065684;28;20043;-71
2022/01/14 11:17:11;;;;;;;3.95;2.13;;;;;;;;;;5052531;28;20021;-71
2022/01/14 11:19:38;;;;;;;4.32;2.00;;;;;;;;;;5052021;28;20041;-69
2022/01/14 11:24:49;;;;;;;4.97;2.40;;;;;;;;;;5052313;28;20044;-71
2022/01/14 11:27:17;;;;;;;3.58;2.20;;;;;;;;;;5054802;28;20108;-71
2022/01/14 11:29:45;;;;;;;3.60;2.10;;;;;;;;;;5056484;28;20021;-73
2022/01/14 11:32:11;;;;;;;2.88;2.00;;;;;;;;;;5061114;28;20067;-68
2022/01/14 11:34:39;;;;;;;4.43;2.47;;;;;;;;;;5076422;28;20115;-72
2022/01/14 11:37:17;;;;;;;3.55;2.08;;;;;;;;;;5076053;28;20166;-72
2022/01/14 11:40:01;;;;;;;5.00;2.25;;;;;;;;;;5075957;28;20024;-71
2022/01/14 11:42:46;;;;;;;3.55;2.08;;;;;;;;;;5071042;28;20036;-71
2022/01/14 11:45:31;;;;;;;4.20;2.13;;;;;;;;;;5075319;28;20060;-73
2022/01/14 11:48:00;;;;;;;4.82;2.25;;;;;;;;;;5057854;28;20032;-72
2022/01/14 11:50:33;;;;;;;6.22;2.55;;;;;;;;;;5060954;28;20032;-71
2022/01/14 11:52:59;;;;;;;2.50;1.95;;;;;;;;;;5073339;28;20032;-70
2022/01/14 11:55:31;;;;;;;3.58;1.98;;;;;;;;;;5075009;28;20064;-71
2022/01/14 11:57:58;;;;;;;2.63;1.70;;;;;;;;;;5075496;28;20024;-72
2022/01/14 12:00:27;;;;;;;5.00;2.25;;;;;;;;;;5075283;28;20451;-71
2022/01/14 12:03:14;;;;;;;23.13;2.28;;;;;;;;;;5072305;28;20069;-73
2022/01/14 12:06:07;;;;;;;3.78;2.05;;;;;;;;;;5039256;28;20046;-72
2022/01/14 12:08:36;;;;;;;3.37;2.23;;;;;;;;;;5050973;28;20605;-71
2022/01/14 12:11:08;;;;;;;3.70;1.88;;;;;;;;;;5055455;28;20043;-72
2022/01/14 12:19:00;;;;;;;2.88;1.98;;;;;;;;;;5056024;28;20040;-72
2022/01/14 12:21:39;;;;;;;3.60;2.10;;;;;;;;;;5061073;28;20028;-73
2022/01/14 12:24:17;;;;;;;2.65;1.83;;;;;;;;;;5075529;28;20040;-73
2022/01/14 12:26:44;;;;;;;4.35;2.00;;;;;;;;;;5075325;28;20510;-73
2022/01/14 12:29:11;;;;;;;6.50;1.95;;;;;;;;;;5075487;28;20105;-72
2022/01/14 12:31:56;;;;;;;3.03;1.80;;;;;;;;;;5072865;28;20044;-73
2022/01/14 12:34:22;;;;;;;3.92;2.08;;;;;;;;;;5057285;28;20028;-75
2022/01/14 12:36:48;;;;;;;3.80;1.92;;;;;;;;;;5075354;28;20027;-73
2022/01/14 12:39:14;;;;;;;5.50;2.03;;;;;;;;;;5074156;28;20195;-73
2022/01/14 12:41:40;;;;;;;5.00;2.30;;;;;;;;;;5057408;28;20526;-72
2022/01/14 12:44:06;;;;;;;4.28;1.95;;;;;;;;;;5056971;28;20097;-72
2022/01/14 12:49:06;;;;;;;2.50;1.80;;;;;;;;;;5075010;28;20517;-72
2022/01/14 12:51:32;;;;;;;4.03;1.83;;;;;;;;;;5075338;28;20044;-64
2022/01/14 12:53:59;;;;;;;2.53;1.80;;;;;;;;;;5075064;28;20128;-71
2022/01/14 12:56:27;;;;;;;3.67;1.85;;;;;;;;;;5074854;28;20104;-71
2022/01/14 12:58:55;;;;;;;2.33;1.70;;;;;;;;;;5075097;28;20471;-70
2022/01/14 13:01:28;;;;;;;3.83;1.92;;;;;;;;;;5075051;28;20035;-69
2022/01/14 13:03:56;;;;;;;4.90;2.00;;;;;;;;;;5057000;28;20468;-71
2022/01/14 13:06:22;;;;;;;4.55;1.80;;;;;;;;;;5076042;28;20489;-70
2022/01/14 13:08:58;;;;;;;8.32;2.05;;;;;;;;;;5075202;28;20081;-73
2022/01/14 13:11:25;;;;;;;22.88;2.13;;;;;;;;;;5085061;28;20089;-72
2022/01/14 13:13:58;;;;;;;30.27;2.60;;;;;;;;;;5073056;28;20025;-68
2022/01/14 13:16:24;;;;;;;10.82;2.83;;;;;;;;;;5058561;28;20029;-70
2022/01/14 13:18:50;;;;;;;29.27;2.50;;;;;;;;;;5054658;28;20491;-71
2022/01/14 13:21:16;;;;;;;14.07;2.30;;;;;;;;;;5054164;28;20029;-69
2022/01/14 13:23:46;;;;;;;18.90;2.35;;;;;;;;;;5054123;28;20384;-70
2022/01/14 13:26:11;;;;;;;13.15;2.08;;;;;;;;;;5054140;28;20472;-69
2022/01/14 13:28:37;;;;;;;3.78;2.03;;;;;;;;;;5036537;28;20035;-72
2022/01/14 13:31:09;;;;;;;12.68;2.00;;;;;;;;;;5054727;28;20017;-74
2022/01/14 13:33:36;;;;;;;17.55;2.40;;;;;;;;;;5054107;28;20467;-70
2022/01/14 13:36:03;;;;;;;15.18;2.60;;;;;;;;;;5054789;28;20439;-71
2022/01/14 13:38:28;;;;;;;19.20;2.42;;;;;;;;;;5054200;28;20057;-71
2022/01/14 13:40:57;;;;;;;29.95;2.55;;;;;;;;;;5036071;28;20122;-71
2022/01/14 13:43:28;;;;;;;20.00;2.40;;;;;;;;;;5053896;28;20115;-69
2022/01/14 13:46:03;;;;;;;12.50;2.28;;;;;;;;;;5054350;28;20040;-71
2022/01/14 13:48:38;;;;;;;12.57;2.20;;;;;;;;;;5053825;28;20028;-70
2022/01/14 13:51:07;;;;;;;6.72;2.25;;;;;;;;;;5054360;28;20345;-72
2022/01/14 13:53:38;;;;;;;8.40;2.15;;;;;;;;;;5053627;28;20127;-70
2022/01/14 13:56:06;;;;;;;7.03;2.60;;;;;;;;;;5052683;28;20029;-71
2022/01/14 13:58:32;;;;;;;5.00;1.80;;;;;;;;;;5053615;28;20025;-72
2022/01/14 14:01:02;;;;;;;4.72;2.10;;;;;;;;;;5070515;28;20024;-69
2022/01/14 14:03:43;;;;;;;6.47;2.35;;;;;;;;;;5094140;28;20030;-72
2022/01/14 14:06:15;;;;;;;10.15;2.20;;;;;;;;;;5094175;28;20039;-72
2022/01/14 14:16:47;;;;;;;5.10;1.83;;;;;;;;;;5053123;28;20048;-72
2022/01/14 14:19:13;;;;;;;8.55;2.47;;;;;;;;;;5053213;28;20021;-71
2022/01/14 14:21:43;;;;;;;4.22;2.03;;;;;;;;;;5053601;28;20448;-72
2022/01/14 14:24:11;;;;;;;4.85;2.10;;;;;;;;;;5053744;28;20384;-72
2022/01/14 14:26:37;;;;;;;4.63;2.10;;;;;;;;;;5035399;28;20115;-72
2022/01/14 14:29:23;;;;;;;6.93;2.00;;;;;;;;;;5035408;28;20053;-72
2022/01/14 14:31:49;;;;;;;8.55;2.53;;;;;;;;;;5034985;28;20553;-72
2022/01/14 14:34:15;;;;;;;6.53;2.55;;;;;;;;;;5052628;28;20053;-70
2022/01/14 14:36:41;;;;;;;6.00;2.33;;;;;;;;;;5040596;28;20108;-70
2022/01/14 14:39:07;;;;;;;4.38;2.05;;;;;;;;;;5055210;28;20028;-71
2022/01/14 14:41:33;;;;;;;4.88;2.15;;;;;;;;;;5073152;28;20021;-73
2022/01/14 14:44:00;;;;;;;7.55;1.90;;;;;;;;;;5072908;28;20076;-72
2022/01/14 14:46:26;;;;;;;5.75;2.25;;;;;;;;;;5073041;28;20028;-72
2022/01/14 14:48:53;;;;;;;2.58;1.90;;;;;;;;;;5072786;28;20348;-69
2022/01/14 14:51:19;;;;;;;9.30;2.50;;;;;;;;;;5054778;28;20024;-71
2022/01/14 14:53:45;;;;;;;7.35;2.85;;;;;;;;;;5053735;28;20050;-68
2022/01/14 14:56:11;;;;;;;3.42;1.90;;;;;;;;;;5072704;28;20029;-67
2022/01/14 14:58:38;;;;;;;5.35;2.10;;;;;;;;;;5072687;28;20024;-72
2022/01/14 15:01:07;;;;;;;6.80;2.28;;;;;;;;;;5072573;28;20491;-71
2022/01/14 15:03:34;;;;;;;6.40;2.20;;;;;;;;;;5072973;28;20035;-69
2022/01/14 15:06:00;;;;;;;4.85;1.80;;;;;;;;;;5072906;28;20032;-71
2022/01/14 15:08:26;;;;;;;8.32;2.22;;;;;;;;;;5054774;28;20414;-68
2022/01/14 15:10:52;;;;;;;4.32;1.88;;;;;;;;;;5067506;28;20036;-72
2022/01/14 15:13:18;;;;;;;4.22;2.00;;;;;;;;;;5052952;28;20028;-72
2022/01/14 15:16:01;;;;;;;4.85;1.77;;;;;;;;;;5052974;28;20036;-72
2022/01/14 15:18:27;;;;;;;4.03;1.70;;;;;;;;;;5053001;28;20082;-72
2022/01/14 15:20:53;;;;;;;3.58;1.73;;;;;;;;;;5052954;28;20104;-71
2022/01/14 15:23:19;;;;;;;4.00;1.92;;;;;;;;;;5052809;28;20024;-72
2022/01/14 15:25:45;;;;;;;2.35;1.67;;;;;;;;;;5052943;28;20143;-72
2022/01/14 15:28:12;;;;;;;3.90;2.00;;;;;;;;;;5052567;28;20120;-70